createdAt,value
2019-04-14T00:01:30.508Z,102376.95
2019-04-14T00:04:13.897Z,102372.81
2019-04-14T00:06:44.033Z,102371.35
2019-04-14T00:09:16.222Z,102375.62
2019-04-14T00:11:45.945Z,102374.48
2019-04-14T00:14:14.593Z,102375.35
2019-04-14T00:16:43.071Z,102371.54
2019-04-14T00:19:11.528Z,102377.02
2019-04-14T00:21:41.074Z,102366.52
2019-04-14T00:24:09.644Z,102374.75
2019-04-14T00:26:38.124Z,102366.69
2019-04-14T00:29:06.849Z,102361.81
2019-04-14T00:31:35.341Z,102360.34
2019-04-14T00:34:07.301Z,102361.48
2019-04-14T00:37:01.320Z,102356.81
2019-04-14T00:39:35.734Z,102352.91
2019-04-14T00:42:21.809Z,102354.45
2019-04-14T00:44:53.913Z,102352.97
2019-04-14T00:47:26.692Z,102356.51
2019-04-14T00:49:55.660Z,102350.77
2019-04-14T00:52:25.358Z,102352.82
2019-04-14T00:54:54.317Z,102353.97
2019-04-14T00:57:22.808Z,102355.08
2019-04-14T00:59:51.606Z,102348.05
2019-04-14T01:02:21.103Z,102361.33
2019-04-14T01:04:49.692Z,102358.50
2019-04-14T01:07:19.531Z,102358.44
2019-04-14T01:09:48.889Z,102351.67
2019-04-14T01:12:17.429Z,102357.83
2019-04-14T01:14:45.875Z,102349.05
2019-04-14T01:17:15.447Z,102354.05
2019-04-14T01:19:43.962Z,102357.83
2019-04-14T01:22:12.415Z,102359.16
2019-04-14T01:24:40.884Z,102357.08
2019-04-14T01:27:10.279Z,102356.55
2019-04-14T01:29:38.685Z,102354.03
2019-04-14T01:32:08.712Z,102353.21
2019-04-14T01:34:37.628Z,102353.84
2019-04-14T01:37:07.184Z,102354.47
2019-04-14T01:39:35.716Z,102355.93
2019-04-14T01:42:04.954Z,102356.88
2019-04-14T01:44:33.557Z,102355.10
2019-04-14T01:47:03.125Z,102354.35
2019-04-14T01:49:31.566Z,102356.08
2019-04-14T01:52:23.119Z,102364.11
2019-04-14T01:55:13.419Z,102358.67
2019-04-14T01:57:54.773Z,102361.13
2019-04-14T02:00:42.317Z,102360.96
2019-04-14T02:03:10.924Z,102361.63
2019-04-14T02:05:40.612Z,102360.80
2019-04-14T02:08:09.159Z,102370.98
2019-04-14T02:10:37.601Z,102372.25
2019-04-14T02:13:07.149Z,102375.59
2019-04-14T02:15:35.653Z,102369.21
2019-04-14T02:18:05.553Z,102367.43
2019-04-14T02:20:34.175Z,102369.08
2019-04-14T02:23:03.849Z,102368.02
2019-04-14T02:25:33.898Z,102367.04
2019-04-14T02:28:02.493Z,102366.76
2019-04-14T02:30:38.886Z,102373.64
2019-04-14T02:33:34.815Z,102364.88
2019-04-14T02:43:30.365Z,102368.42
2019-04-14T02:45:57.921Z,102364.34
2019-04-14T02:51:06.118Z,102365.65
2019-04-14T02:53:39.495Z,102368.96
2019-04-14T02:58:38.482Z,102374.42
2019-04-14T03:03:33.571Z,102373.70
2019-04-14T03:06:05.399Z,102378.73
2019-04-14T03:08:34.388Z,102375.91
2019-04-14T03:11:01.648Z,102378.16
2019-04-14T03:13:35.307Z,102382.26
2019-04-14T03:16:07.947Z,102368.99
2019-04-14T03:27:06.178Z,102375.05
2019-04-14T03:29:49.839Z,102377.34
2019-04-14T03:34:42.081Z,102381.75
2019-04-14T03:37:30.905Z,102384.11
2019-04-14T03:39:41.472Z,102380.37
2019-04-14T03:42:13.121Z,102371.70
2019-04-14T03:44:42.044Z,102374.77
2019-04-14T03:47:06.908Z,102377.33
2019-04-14T03:49:40.752Z,102377.01
2019-04-14T03:52:08.758Z,102370.20
2019-04-14T03:54:33.258Z,102374.12
2019-04-14T03:57:01.771Z,102375.47
2019-04-14T03:59:30.373Z,102374.88
2019-04-14T04:01:58.810Z,102378.96
2019-04-14T04:04:27.527Z,102376.37
2019-04-14T04:06:57.360Z,102380.23
2019-04-14T04:09:32.171Z,102385.98
2019-04-14T04:12:00.664Z,102390.39
2019-04-14T04:14:29.224Z,102389.21
2019-04-14T04:17:17.101Z,102380.70
2019-04-14T04:19:59.925Z,102386.18
2019-04-14T04:22:48.420Z,102383.23
2019-04-14T04:25:31.154Z,102383.86
2019-04-14T04:28:25.618Z,102378.50
2019-04-14T04:31:16.323Z,102384.84
2019-04-14T04:34:09.894Z,102386.72
2019-04-14T04:36:46.365Z,102385.74
2019-04-14T04:39:19.337Z,102392.83
2019-04-14T04:41:49.331Z,102392.70
2019-04-14T04:44:18.416Z,102388.96
2019-04-14T04:46:46.883Z,102403.48
2019-04-14T04:49:21.151Z,102398.48
2019-04-14T04:51:46.548Z,102395.25
2019-04-14T04:54:15.115Z,102393.32
2019-04-14T04:56:44.786Z,102400.31
2019-04-14T04:59:13.441Z,102397.38
2019-04-14T05:01:42.913Z,102403.98
2019-04-14T05:04:11.460Z,102401.33
2019-04-14T05:07:08.350Z,102396.48
2019-04-14T05:09:55.614Z,102400.98
2019-04-14T05:12:37.494Z,102402.20
2019-04-14T05:15:42.309Z,102400.38
2019-04-14T05:18:15.792Z,102400.27
2019-04-14T05:20:44.260Z,102404.55
2019-04-14T05:23:12.718Z,102400.80
2019-04-14T05:25:41.196Z,102400.69
2019-04-14T05:28:09.671Z,102409.50
2019-04-14T05:30:39.236Z,102406.91
2019-04-14T05:33:07.802Z,102406.31
2019-04-14T05:35:36.333Z,102407.36
2019-04-14T05:38:04.746Z,102413.34
2019-04-14T05:40:34.308Z,102413.13
2019-04-14T05:43:02.993Z,102414.23
2019-04-14T05:45:32.657Z,102420.88
2019-04-14T05:48:01.713Z,102426.08
2019-04-14T05:50:31.263Z,102432.52
2019-04-14T05:53:00.054Z,102428.52
2019-04-14T05:55:28.553Z,102430.50
2019-04-14T05:57:57.266Z,102425.55
2019-04-14T06:00:25.939Z,102429.63
2019-04-14T06:02:55.205Z,102430.03
2019-04-14T06:05:23.706Z,102428.83
2019-04-14T06:07:52.321Z,102428.66
2019-04-14T06:10:21.344Z,102431.74
2019-04-14T06:12:51.049Z,102427.25
2019-04-14T06:15:19.498Z,102428.16
2019-04-14T06:17:47.958Z,102427.91
2019-04-14T06:20:16.419Z,102435.14
2019-04-14T06:22:44.869Z,102437.00
2019-04-14T06:25:13.317Z,102438.94
2019-04-14T06:27:41.787Z,102437.38
2019-04-14T06:30:30.625Z,102439.81
2019-04-14T06:33:01.457Z,102441.55
2019-04-14T06:35:46.681Z,102445.19
2019-04-14T06:38:21.605Z,102445.95
2019-04-14T06:40:55.084Z,102448.64
2019-04-14T06:43:23.559Z,102447.47
2019-04-14T06:45:52.025Z,102452.49
2019-04-14T06:48:20.523Z,102458.58
2019-04-14T06:50:48.985Z,102455.78
2019-04-14T06:53:17.454Z,102449.20
2019-04-14T06:55:45.942Z,102448.97
2019-04-14T06:58:14.437Z,102449.83
2019-04-14T07:00:42.872Z,102446.42
2019-04-14T07:03:11.545Z,102449.77
2019-04-14T07:05:40.365Z,102450.01
2019-04-14T07:08:08.821Z,102450.03
2019-04-14T07:10:37.313Z,102449.53
2019-04-14T07:13:05.801Z,102444.03
2019-04-14T07:15:34.271Z,102444.38
2019-04-14T07:18:02.834Z,102445.12
2019-04-14T07:20:31.323Z,102449.66
2019-04-14T07:22:59.797Z,102448.56
2019-04-14T07:25:28.279Z,102449.80
2019-04-14T07:27:57.452Z,102447.49
2019-04-14T07:30:43.751Z,102451.05
2019-04-14T07:33:34.255Z,102455.47
2019-04-14T07:36:22.566Z,102459.11
2019-04-14T07:39:09.724Z,102457.02
2019-04-14T07:41:45.271Z,102461.67
2019-04-14T07:44:20.920Z,102466.64
2019-04-14T07:47:03.835Z,102469.48
2019-04-14T07:49:43.187Z,102467.37
2019-04-14T07:52:29.432Z,102475.10
2019-04-14T07:55:05.737Z,102472.44
2019-04-14T07:57:52.016Z,102472.20
2019-04-14T08:00:42.761Z,102471.23
2019-04-14T08:03:15.930Z,102472.58
2019-04-14T08:05:44.440Z,102468.99
2019-04-14T08:08:12.909Z,102469.12
2019-04-14T08:10:41.405Z,102473.03
2019-04-14T08:13:09.883Z,102472.41
2019-04-14T08:15:38.370Z,102475.55
2019-04-14T08:18:06.866Z,102476.66
2019-04-14T08:20:35.713Z,102477.37
2019-04-14T08:23:04.268Z,102471.98
2019-04-14T08:25:32.698Z,102471.13
2019-04-14T08:28:01.270Z,102465.73
2019-04-14T08:30:29.727Z,102470.73
2019-04-14T08:32:58.284Z,102462.20
2019-04-14T08:35:26.764Z,102462.46
2019-04-14T08:37:55.236Z,102464.47
2019-04-14T08:40:23.691Z,102462.34
2019-04-14T08:43:10.818Z,102463.39
2019-04-14T08:45:56.018Z,102460.58
2019-04-14T08:48:43.509Z,102463.91
2019-04-14T08:51:16.646Z,102465.88
2019-04-14T08:53:52.724Z,102468.53
2019-04-14T08:56:32.379Z,102461.80
2019-04-14T08:59:18.048Z,102467.70
2019-04-14T09:02:08.233Z,102467.92
2019-04-14T09:04:45.271Z,102463.14
2019-04-14T09:07:21.484Z,102467.02
2019-04-14T09:09:54.570Z,102467.72
2019-04-14T09:12:25.348Z,102474.39
2019-04-14T09:14:57.378Z,102472.20
2019-04-14T09:17:24.172Z,102470.67
2019-04-14T09:19:52.659Z,102469.36
2019-04-14T09:22:21.143Z,102479.23
2019-04-14T09:24:49.657Z,102480.14
2019-04-14T09:27:18.498Z,102478.92
2019-04-14T09:29:47.026Z,102473.34
2019-04-14T09:32:15.706Z,102473.52
2019-04-14T09:34:44.170Z,102476.28
2019-04-14T09:37:12.663Z,102475.96
2019-04-14T09:39:41.132Z,102485.97
2019-04-14T09:42:09.637Z,102482.75
2019-04-14T09:44:38.116Z,102487.35
2019-04-14T09:47:06.624Z,102487.66
2019-04-14T09:49:35.455Z,102497.38
2019-04-14T09:52:03.907Z,102494.70
2019-04-14T09:54:32.364Z,102490.80
2019-04-14T09:57:00.796Z,102501.81
2019-04-14T09:59:29.241Z,102495.45
2019-04-14T10:01:57.767Z,102498.73
2019-04-14T10:04:26.208Z,102490.98
2019-04-14T10:06:54.661Z,102496.55
2019-04-14T10:09:23.123Z,102491.92
2019-04-14T10:11:56.047Z,102497.58
2019-04-14T10:14:22.067Z,102496.75
2019-04-14T10:16:50.524Z,102488.47
2019-04-14T10:19:18.992Z,102499.77
2019-04-14T10:21:47.532Z,102495.49
2019-04-14T10:24:16.053Z,102507.53
2019-04-14T10:26:44.529Z,102507.44
2019-04-14T10:29:13.023Z,102514.80
2019-04-14T10:31:41.500Z,102509.51
2019-04-14T10:34:10.054Z,102511.43
2019-04-14T10:36:38.503Z,102507.96
2019-04-14T10:39:07.882Z,102425.24
2019-04-14T10:41:36.349Z,102503.52
2019-04-14T10:44:04.889Z,102504.23
2019-04-14T10:46:33.354Z,102508.27
2019-04-14T10:49:01.881Z,102506.03
2019-04-14T10:51:33.876Z,102506.17
2019-04-14T10:54:00.599Z,102501.22
2019-04-14T10:56:29.059Z,102509.91
2019-04-14T10:58:57.516Z,102500.29
2019-04-14T11:01:25.990Z,102496.70
2019-04-14T11:03:54.470Z,102500.36
2019-04-14T11:06:30.033Z,102499.33
2019-04-14T11:08:58.514Z,102504.14
2019-04-14T11:11:26.952Z,102502.56
2019-04-14T11:13:55.424Z,102504.49
2019-04-14T11:16:24.237Z,102501.63
2019-04-14T11:18:52.702Z,102498.86
2019-04-14T11:21:21.134Z,102505.04
2019-04-14T11:23:49.612Z,102499.67
2019-04-14T11:26:18.056Z,102501.33
2019-04-14T11:28:46.513Z,102495.02
2019-04-14T11:31:17.145Z,102504.87
2019-04-14T11:34:01.353Z,102501.11
2019-04-14T11:36:48.054Z,102496.30
2019-04-14T11:39:17.291Z,102503.97
2019-04-14T11:41:46.102Z,102499.16
2019-04-14T11:44:14.607Z,102498.84
2019-04-14T11:46:43.077Z,102497.69
2019-04-14T11:49:11.616Z,102508.42
2019-04-14T11:51:40.081Z,102506.61
2019-04-14T11:54:08.547Z,102512.53
2019-04-14T11:56:37.031Z,102506.27
2019-04-14T11:59:05.505Z,102512.80
2019-04-14T12:02:08.249Z,102506.34
2019-04-14T12:04:51.961Z,102511.03
2019-04-14T12:07:48.357Z,102514.36
2019-04-14T12:10:19.435Z,102514.84
2019-04-14T12:12:47.874Z,102520.42
2019-04-14T12:15:16.821Z,102517.63
2019-04-14T12:17:45.402Z,102510.81
2019-04-14T12:20:13.860Z,102515.33
2019-04-14T12:22:42.332Z,102516.74
2019-04-14T12:25:10.797Z,102508.63
2019-04-14T12:27:39.743Z,102513.36
2019-04-14T12:30:11.137Z,102514.05
2019-04-14T12:32:39.859Z,102516.00
2019-04-14T12:35:08.454Z,102520.73
2019-04-14T12:37:36.953Z,102517.87
2019-04-14T12:40:05.487Z,102526.80
2019-04-14T12:42:49.517Z,102515.38
2019-04-14T12:45:35.729Z,102515.60
2019-04-14T12:48:22.283Z,102513.85
2019-04-14T12:50:57.582Z,102511.30
2019-04-14T12:53:26.062Z,102520.61
2019-04-14T12:55:54.638Z,102515.97
2019-04-14T12:58:31.600Z,102515.89
2019-04-14T13:01:07.385Z,102508.30
2019-04-14T13:03:37.733Z,102502.02
2019-04-14T13:06:06.155Z,102507.73
2019-04-14T13:08:34.610Z,102507.63
2019-04-14T13:11:03.880Z,102513.16
2019-04-14T13:13:32.350Z,102516.89
2019-04-14T13:16:01.259Z,102513.08
2019-04-14T13:18:30.652Z,102516.58
2019-04-14T13:20:59.394Z,102513.30
2019-04-14T13:23:27.849Z,102506.73
2019-04-14T13:25:56.493Z,102506.09
2019-04-14T13:28:24.972Z,102502.28
2019-04-14T13:30:53.890Z,102506.85
2019-04-14T13:33:22.397Z,102505.59
2019-04-14T13:35:50.932Z,102508.37
2019-04-14T13:38:19.485Z,102510.72
2019-04-14T13:40:47.930Z,102504.64
2019-04-14T13:43:16.410Z,102501.63
2019-04-14T13:45:44.853Z,102506.27
2019-04-14T13:48:13.424Z,102499.81
2019-04-14T13:50:42.035Z,102508.25
2019-04-14T13:53:10.499Z,102508.54
2019-04-14T13:55:38.969Z,102510.00
2019-04-14T13:58:07.442Z,102514.67
2019-04-14T14:00:36.216Z,102514.70
2019-04-14T14:03:04.690Z,102510.08
2019-04-14T14:05:33.137Z,102509.83
2019-04-14T14:08:01.689Z,102514.10
2019-04-14T14:10:31.611Z,102513.56
2019-04-14T14:13:18.096Z,102506.50
2019-04-14T14:16:01.867Z,102510.30
2019-04-14T14:18:38.059Z,102511.06
2019-04-14T14:21:21.463Z,102512.93
2019-04-14T14:24:12.171Z,102507.67
2019-04-14T14:26:41.429Z,102502.22
2019-04-14T14:29:09.931Z,102505.04
2019-04-14T14:31:38.402Z,102501.71
2019-04-14T14:34:06.869Z,102498.00
2019-04-14T14:36:35.606Z,102496.05
2019-04-14T14:39:05.641Z,102504.23
2019-04-14T14:41:34.107Z,102504.49
2019-04-14T14:44:02.581Z,102501.86
2019-04-14T14:46:41.455Z,102502.83
2019-04-14T14:49:16.950Z,102500.50
2019-04-14T14:51:53.379Z,102500.45
2019-04-14T14:54:21.878Z,102501.91
2019-04-14T14:56:50.330Z,102499.63
2019-04-14T14:59:18.781Z,102505.48
2019-04-14T15:01:47.267Z,102502.16
2019-04-14T15:04:18.890Z,102498.63
2019-04-14T15:06:46.270Z,102506.80
2019-04-14T15:09:14.794Z,102495.41
2019-04-14T15:11:43.369Z,102504.59
2019-04-14T15:14:11.856Z,102500.06
2019-04-14T15:16:40.324Z,102499.45
2019-04-14T15:19:08.832Z,102491.13
2019-04-14T15:21:37.313Z,102498.74
2019-04-14T15:24:05.786Z,102495.33
2019-04-14T15:26:34.349Z,102497.95
2019-04-14T15:29:02.797Z,102498.84
2019-04-14T15:31:31.272Z,102491.94
2019-04-14T15:33:59.804Z,102494.87
2019-04-14T15:36:28.270Z,102498.06
2019-04-14T15:38:58.444Z,102497.57
2019-04-14T15:41:26.967Z,102500.27
2019-04-14T15:43:55.698Z,102497.23
2019-04-14T15:46:24.176Z,102500.91
2019-04-14T15:48:52.738Z,102502.17
2019-04-14T15:51:21.494Z,102502.80
2019-04-14T15:53:49.998Z,102500.22
2019-04-14T15:56:30.741Z,102508.08
2019-04-14T15:59:06.724Z,102503.06
2019-04-14T16:01:42.990Z,102503.69
2019-04-14T16:04:18.698Z,102505.50
2019-04-14T16:06:53.816Z,102511.95
2019-04-14T16:09:27.438Z,102505.09
2019-04-14T16:12:13.871Z,102506.04
2019-04-14T16:15:07.514Z,102506.61
2019-04-14T16:17:47.251Z,102501.10
2019-04-14T16:20:18.894Z,102501.44
2019-04-14T16:22:47.386Z,102504.03
2019-04-14T16:25:16.112Z,102503.42
2019-04-14T16:28:03.139Z,102506.84
2019-04-14T16:30:50.745Z,102505.86
2019-04-14T16:33:30.758Z,102504.59
2019-04-14T16:35:59.545Z,102508.19
2019-04-14T16:38:28.030Z,102507.13
2019-04-14T16:40:56.593Z,102501.77
2019-04-14T16:43:26.383Z,102498.61
2019-04-14T16:45:55.082Z,102504.66
2019-04-14T16:48:23.553Z,102516.09
2019-04-14T16:50:52.062Z,102511.58
2019-04-14T16:53:27.285Z,102513.33
2019-04-14T16:56:11.862Z,102507.59
2019-04-14T16:58:46.987Z,102512.75
2019-04-14T17:01:24.499Z,102507.70
2019-04-14T17:03:52.957Z,102514.21
2019-04-14T17:06:21.601Z,102517.69
2019-04-14T17:08:50.045Z,102516.97
2019-04-14T17:11:18.537Z,102514.75
2019-04-14T17:13:54.436Z,102510.22
2019-04-14T17:16:39.471Z,102517.80
2019-04-14T17:19:15.601Z,102516.59
2019-04-14T17:21:54.532Z,102523.48
2019-04-14T17:24:45.022Z,102527.28
2019-04-14T17:27:47.998Z,102524.98
2019-04-14T17:30:28.072Z,102526.10
2019-04-14T17:33:14.299Z,102530.63
2019-04-14T17:35:47.763Z,102536.90
2019-04-14T17:38:38.148Z,102546.73
2019-04-14T17:41:25.717Z,102542.69
2019-04-14T17:44:10.606Z,102533.88
2019-04-14T17:46:48.451Z,102529.59
2019-04-14T17:49:28.261Z,102540.38
2019-04-14T17:52:14.430Z,102541.98
2019-04-14T17:55:05.027Z,102551.66
2019-04-14T17:57:50.750Z,102551.42
2019-04-14T18:00:31.179Z,102560.76
2019-04-14T18:03:03.729Z,102571.20
2019-04-14T18:05:36.684Z,102564.45
2019-04-14T18:08:12.137Z,102570.81
2019-04-14T18:10:55.089Z,102569.84
2019-04-14T18:13:41.552Z,102569.95
2019-04-14T18:16:20.684Z,102573.76
2019-04-14T18:19:12.012Z,102580.39
2019-04-14T18:21:40.506Z,102580.53
2019-04-14T18:24:08.989Z,102579.91
2019-04-14T18:26:37.457Z,102571.34
2019-04-14T18:29:23.731Z,102581.75
2019-04-14T18:32:14.382Z,102587.14
2019-04-14T18:34:50.728Z,102583.95
2019-04-14T18:37:44.167Z,102582.27
2019-04-14T18:40:16.562Z,102580.91
2019-04-14T18:43:00.192Z,102585.55
2019-04-14T18:45:35.527Z,102587.41
2019-04-14T18:48:23.073Z,102588.52
2019-04-14T18:51:09.396Z,102592.56
2019-04-14T18:54:03.156Z,102597.43
2019-04-14T18:56:54.018Z,102601.85
2019-04-14T18:59:46.072Z,102604.41
2019-04-14T19:02:16.185Z,102603.92
2019-04-14T19:04:44.676Z,102612.87
2019-04-14T19:07:13.396Z,102618.12
2019-04-14T19:09:41.932Z,102621.06
2019-04-14T19:12:28.316Z,102622.41
2019-04-14T19:15:06.826Z,102627.80
2019-04-14T19:17:41.577Z,102628.05
2019-04-14T19:20:10.780Z,102630.25
2019-04-14T19:22:39.349Z,102636.52
2019-04-14T19:25:08.788Z,102636.86
2019-04-14T19:27:37.347Z,102636.75
2019-04-14T19:30:05.952Z,102643.84
2019-04-14T19:32:34.414Z,102643.22
2019-04-14T19:35:02.890Z,102642.73
2019-04-14T19:37:31.396Z,102643.59
2019-04-14T19:39:59.884Z,102639.94
2019-04-14T19:42:28.417Z,102648.75
2019-04-14T19:44:57.182Z,102642.35
2019-04-14T19:47:25.668Z,102643.08
2019-04-14T19:49:54.447Z,102644.42
2019-04-14T19:52:22.950Z,102647.74
2019-04-14T19:54:51.380Z,102653.03
2019-04-14T19:57:19.928Z,102657.08
2019-04-14T19:59:48.923Z,102653.03
2019-04-14T20:02:17.408Z,102654.24
2019-04-14T20:04:46.538Z,102660.98
2019-04-14T20:07:15.310Z,102660.50
2019-04-14T20:09:43.799Z,102656.45
2019-04-14T20:12:13.778Z,102656.45
2019-04-14T20:14:42.535Z,102660.98
2019-04-14T20:17:27.801Z,102664.06
2019-04-14T20:20:14.009Z,102658.28
2019-04-14T20:23:01.944Z,102663.55
2019-04-14T20:25:55.490Z,102664.41
2019-04-14T20:28:46.365Z,102658.53
2019-04-14T20:31:42.881Z,102656.31
2019-04-14T20:34:11.439Z,102659.73
2019-04-14T20:36:40.231Z,102664.16
2019-04-14T20:39:13.129Z,102666.86
2019-04-14T20:41:41.600Z,102662.44
2019-04-14T20:44:10.095Z,102665.13
2019-04-14T20:46:38.828Z,102667.48
2019-04-14T20:49:07.377Z,102669.17
2019-04-14T20:51:36.116Z,102670.91
2019-04-14T20:54:04.588Z,102676.30
2019-04-14T20:56:33.063Z,102673.95
2019-04-14T20:59:01.530Z,102675.30
2019-04-14T21:01:32.200Z,102679.86
2019-04-14T21:04:04.536Z,102679.34
2019-04-14T21:06:42.965Z,102681.45
2019-04-14T21:09:18.168Z,102682.79
2019-04-14T21:12:05.988Z,102682.41
2019-04-14T21:14:44.600Z,102680.69
2019-04-14T21:17:27.045Z,102678.98
2019-04-14T21:20:13.232Z,102679.34
2019-04-14T21:22:47.142Z,102678.37
2019-04-14T21:25:34.372Z,102674.81
2019-04-14T21:28:09.388Z,102669.90
2019-04-14T21:30:54.797Z,102675.30
2019-04-14T21:33:45.413Z,102678.61
2019-04-14T21:36:18.254Z,102680.83
2019-04-14T21:39:04.944Z,102679.61
2019-04-14T21:41:33.453Z,102677.78
2019-04-14T21:44:01.931Z,102683.76
2019-04-14T21:46:30.390Z,102690.02
2019-04-14T21:48:58.899Z,102693.71
2019-04-14T21:51:46.557Z,102693.58
2019-04-14T21:54:14.965Z,102703.50
2019-04-14T21:56:44.103Z,102704.50
2019-04-14T21:59:17.850Z,102703.39
2019-04-14T22:02:04.030Z,102705.60
2019-04-14T22:04:50.460Z,102703.01
2019-04-14T22:07:41.048Z,102703.88
2019-04-14T22:10:25.766Z,102706.32
2019-04-14T22:12:54.240Z,102705.98
2019-04-14T22:15:22.692Z,102711.47
2019-04-14T22:17:51.214Z,102712.72
2019-04-14T22:20:19.707Z,102717.59
2019-04-14T22:22:48.632Z,102716.38
2019-04-14T22:25:17.093Z,102721.91
2019-04-14T22:27:45.664Z,102723.36
2019-04-14T22:30:14.135Z,102721.66
2019-04-14T22:32:42.595Z,102731.44
2019-04-14T22:35:11.088Z,102724.11
2019-04-14T22:37:39.560Z,102723.86
2019-04-14T22:40:08.007Z,102725.31
2019-04-14T22:42:36.483Z,102732.19
2019-04-14T22:45:05.594Z,102731.45
2019-04-14T22:47:34.088Z,102732.32
2019-04-14T22:50:02.582Z,102744.55
2019-04-14T22:52:31.287Z,102741.85
2019-04-14T22:54:59.876Z,102747.23
2019-04-14T22:57:28.307Z,102756.33
2019-04-14T22:59:57.054Z,102753.86
2019-04-14T23:02:37.999Z,102754.48
2019-04-14T23:05:19.107Z,102762.08
2019-04-14T23:08:09.260Z,102758.91
2019-04-14T23:11:08.908Z,102760.83
2019-04-14T23:13:49.108Z,102760.97
2019-04-14T23:16:28.136Z,102759.23
2019-04-14T23:19:02.773Z,102764.14
2019-04-14T23:21:52.384Z,102759.38
2019-04-14T23:24:23.493Z,102761.72
2019-04-14T23:26:53.313Z,102761.08
2019-04-14T23:29:21.993Z,102753.37
2019-04-14T23:31:50.428Z,102763.41
2019-04-14T23:34:18.888Z,102760.33
2019-04-14T23:36:47.375Z,102762.16
2019-04-14T23:39:15.908Z,102760.08
2019-04-14T23:41:44.357Z,102764.39
2019-04-14T23:44:12.913Z,102769.63
2019-04-14T23:46:41.386Z,102760.67
2019-04-14T23:49:09.835Z,102764.84
2019-04-14T23:51:38.324Z,102765.71
2019-04-14T23:54:06.790Z,102771.09
2019-04-14T23:56:35.537Z,102766.67
2019-04-14T23:59:04.007Z,102762.28
